createdAt,value
2022-09-11T00:00:10.696Z,96538.84
2022-09-11T00:02:38.291Z,96535.78
2022-09-11T00:05:06.336Z,96538.25
2022-09-11T00:07:36.782Z,96543.16
2022-09-11T00:10:04.610Z,96535.88
2022-09-11T00:12:52.247Z,96533.13
2022-09-11T00:15:22.770Z,96530.84
2022-09-11T00:17:50.536Z,96532.75
2022-09-11T00:20:19.132Z,96526.13
2022-09-11T00:22:47.331Z,96530.31
2022-09-11T00:25:17.460Z,96538.78
2022-09-11T00:27:50.394Z,96536.47
2022-09-11T00:30:18.421Z,96531.22
2022-09-11T00:32:45.974Z,96531.53
2022-09-11T00:35:17.458Z,96533.56
2022-09-11T00:37:45.264Z,96532.28
2022-09-11T00:40:15.490Z,96529.31
2022-09-11T00:42:45.990Z,96526.47
2022-09-11T00:45:20.957Z,96518.41
2022-09-11T00:47:54.108Z,96524.78
2022-09-11T00:50:23.229Z,96529.44
2022-09-11T00:52:53.245Z,96535.56
2022-09-11T00:55:23.213Z,96532.72
2022-09-11T00:57:54.384Z,96532.38
2022-09-11T01:00:26.441Z,96527.16
2022-09-11T01:02:54.549Z,96517.50
2022-09-11T01:05:22.633Z,96522.31
2022-09-11T01:07:50.448Z,96514.00
2022-09-11T01:10:18.949Z,96516.16
2022-09-11T01:12:48.862Z,96516.78
2022-09-11T01:15:20.825Z,96517.38
2022-09-11T01:17:55.286Z,96522.78
2022-09-11T01:20:26.473Z,96526.97
2022-09-11T01:23:13.993Z,96527.75
2022-09-11T01:25:46.954Z,96378.19
2022-09-11T01:28:16.821Z,96530.53
2022-09-11T01:30:46.763Z,96531.41
2022-09-11T01:33:17.260Z,96530.72
2022-09-11T01:35:51.326Z,96527.47
2022-09-11T01:38:19.522Z,96524.97
2022-09-11T01:40:49.300Z,96534.59
2022-09-11T01:43:22.246Z,96526.28
2022-09-11T01:45:50.477Z,96526.00
2022-09-11T01:48:19.796Z,96512.81
2022-09-11T01:50:47.889Z,96518.75
2022-09-11T01:53:15.740Z,96514.28
2022-09-11T01:55:44.550Z,96520.81
2022-09-11T01:58:14.208Z,96528.06
2022-09-11T02:00:44.715Z,96520.28
2022-09-11T02:03:16.958Z,96520.03
2022-09-11T02:05:45.854Z,96523.41
2022-09-11T02:08:16.383Z,96518.47
2022-09-11T02:10:44.618Z,96523.31
2022-09-11T02:13:13.714Z,96516.78
2022-09-11T02:15:49.609Z,96523.69
2022-09-11T02:18:18.412Z,96533.38
2022-09-11T02:20:48.398Z,96533.69
2022-09-11T02:23:16.301Z,96526.06
2022-09-11T02:25:44.137Z,96532.75
2022-09-11T02:28:11.821Z,96538.28
2022-09-11T02:30:39.745Z,96531.84
2022-09-11T02:33:23.099Z,96537.84
2022-09-11T02:35:52.845Z,96539.06
2022-09-11T02:38:22.327Z,96551.06
2022-09-11T02:40:52.150Z,96293.50
2022-09-11T02:43:34.352Z,96548.94
2022-09-11T02:46:10.162Z,96547.84
2022-09-11T02:48:43.429Z,96548.59
2022-09-11T02:51:15.733Z,96553.78
2022-09-11T02:53:44.261Z,96545.69
2022-09-11T02:56:13.594Z,96541.22
2022-09-11T02:58:41.706Z,96555.31
2022-09-11T03:01:09.973Z,96557.53
2022-09-11T03:03:41.008Z,96555.25
2022-09-11T03:06:11.161Z,96548.81
2022-09-11T03:08:41.093Z,96540.34
2022-09-11T03:11:09.602Z,96538.56
2022-09-11T03:13:38.237Z,96540.59
2022-09-11T03:16:06.298Z,96545.31
2022-09-11T03:18:34.253Z,96546.59
2022-09-11T03:21:03.424Z,96551.13
2022-09-11T03:23:31.175Z,96550.06
2022-09-11T03:26:03.629Z,96543.97
2022-09-11T03:28:32.126Z,96548.66
2022-09-11T03:31:03.645Z,96549.16
2022-09-11T03:33:31.198Z,96548.66
2022-09-11T03:35:59.640Z,96555.13
2022-09-11T03:38:27.221Z,96548.97
2022-09-11T03:40:58.932Z,96549.75
2022-09-11T03:43:29.747Z,96556.22
2022-09-11T03:45:57.493Z,96553.09
2022-09-11T03:48:29.378Z,96559.75
2022-09-11T03:50:59.950Z,96560.38
2022-09-11T03:53:27.866Z,96562.25
2022-09-11T03:55:55.877Z,96564.75
2022-09-11T03:58:23.450Z,96563.19
2022-09-11T04:00:54.423Z,96566.13
2022-09-11T04:03:24.576Z,96557.00
2022-09-11T04:05:59.450Z,96334.25
2022-09-11T04:08:27.196Z,96562.34
2022-09-11T04:10:59.457Z,96554.28
2022-09-11T04:13:27.726Z,96546.03
2022-09-11T04:16:10.687Z,96553.41
2022-09-11T04:18:39.053Z,96552.94
2022-09-11T04:21:06.990Z,96560.94
2022-09-11T04:23:35.345Z,96563.50
2022-09-11T04:26:08.513Z,96563.19
2022-09-11T04:28:41.572Z,96563.16
2022-09-11T04:31:14.819Z,96557.16
2022-09-11T04:33:45.274Z,96562.34
2022-09-11T04:36:14.462Z,96563.56
2022-09-11T04:38:44.226Z,96567.00
2022-09-11T04:41:15.077Z,96566.63
2022-09-11T04:43:45.447Z,96415.19
2022-09-11T04:46:17.937Z,96589.56
2022-09-11T04:48:45.684Z,96589.59
2022-09-11T04:51:15.974Z,96593.25
2022-09-11T04:53:49.902Z,96600.25
2022-09-11T04:56:17.668Z,96622.72
2022-09-11T04:58:45.569Z,96606.72
2022-09-11T05:01:15.341Z,96605.97
2022-09-11T05:03:46.873Z,96611.16
2022-09-11T05:06:16.547Z,96611.56
2022-09-11T05:08:44.883Z,96612.28
2022-09-11T05:11:13.785Z,96623.75
2022-09-11T05:13:41.589Z,96620.09
2022-09-11T05:16:16.335Z,96620.19
2022-09-11T05:18:45.296Z,96619.56
2022-09-11T05:21:14.394Z,96626.13
2022-09-11T05:23:44.519Z,96629.47
2022-09-11T05:26:15.130Z,96637.84
2022-09-11T05:28:42.664Z,96631.50
2022-09-11T05:31:13.604Z,96637.41
2022-09-11T05:33:44.333Z,96643.50
2022-09-11T05:36:15.169Z,96639.97
2022-09-11T05:38:42.884Z,96645.25
2022-09-11T05:41:11.652Z,96645.88
2022-09-11T05:43:43.600Z,96645.03
2022-09-11T05:46:12.321Z,96648.59
2022-09-11T05:48:44.398Z,96645.69
2022-09-11T05:51:12.934Z,96645.94
2022-09-11T05:53:40.842Z,96648.56
2022-09-11T05:56:09.311Z,96646.31
2022-09-11T05:58:37.447Z,96656.53
2022-09-11T06:01:08.054Z,96656.72
2022-09-11T06:03:37.068Z,96661.56
2022-09-11T06:06:07.024Z,96665.03
2022-09-11T06:08:34.759Z,96667.50
2022-09-11T06:11:06.939Z,96677.66
2022-09-11T06:13:39.021Z,96669.91
2022-09-11T06:16:07.072Z,96680.66
2022-09-11T06:18:34.805Z,96686.34
2022-09-11T06:21:03.824Z,96695.97
2022-09-11T06:23:33.122Z,96691.91
2022-09-11T06:26:06.247Z,96691.31
2022-09-11T06:28:35.357Z,96696.00
2022-09-11T06:31:06.722Z,96695.72
2022-09-11T06:33:36.187Z,96703.19
2022-09-11T06:36:05.058Z,96696.72
2022-09-11T06:38:34.440Z,96699.84
2022-09-11T06:41:03.089Z,96710.81
2022-09-11T06:43:31.006Z,96713.75
2022-09-11T06:46:07.064Z,96721.63
2022-09-11T06:48:34.669Z,96719.75
2022-09-11T06:51:06.175Z,96709.50
2022-09-11T06:53:35.469Z,96712.03
2022-09-11T06:56:03.666Z,96712.09
2022-09-11T06:58:32.949Z,96706.63
2022-09-11T07:01:03.544Z,96716.53
2022-09-11T07:03:31.149Z,96714.38
2022-09-11T07:06:01.684Z,96705.59
2022-09-11T07:08:29.657Z,96715.09
2022-09-11T07:11:05.699Z,96713.75
2022-09-11T07:13:37.451Z,96714.25
2022-09-11T07:16:06.398Z,96720.78
2022-09-11T07:18:35.199Z,96716.41
2022-09-11T07:21:05.269Z,96711.63
2022-09-11T07:23:42.267Z,96711.59
2022-09-11T07:26:15.566Z,96720.25
2022-09-11T07:28:44.772Z,96720.25
2022-09-11T07:31:17.473Z,96723.53
2022-09-11T07:33:48.814Z,96714.25
2022-09-11T07:36:20.419Z,96722.66
2022-09-11T07:38:48.872Z,96722.34
2022-09-11T07:41:18.730Z,96726.81
2022-09-11T07:43:50.983Z,96724.72
2022-09-11T07:46:18.587Z,96728.88
2022-09-11T07:48:46.470Z,96734.41
2022-09-11T07:51:15.170Z,96737.31
2022-09-11T07:53:44.497Z,96733.50
2022-09-11T07:56:15.372Z,96730.47
2022-09-11T07:58:48.046Z,96745.97
2022-09-11T08:01:17.822Z,96747.81
2022-09-11T08:03:49.512Z,96750.38
2022-09-11T08:06:22.542Z,96752.00
2022-09-11T08:08:54.841Z,96758.72
2022-09-11T08:11:22.716Z,96759.22
2022-09-11T08:13:55.718Z,96757.44
2022-09-11T08:16:26.289Z,96759.81
2022-09-11T08:18:54.164Z,96758.22
2022-09-11T08:21:22.366Z,96761.22
2022-09-11T08:23:50.460Z,96757.09
2022-09-11T08:26:19.745Z,96755.22
2022-09-11T08:28:51.576Z,96752.81
2022-09-11T08:31:21.472Z,96764.03
2022-09-11T08:33:52.158Z,96765.56
2022-09-11T08:36:19.885Z,96766.16
2022-09-11T08:38:47.949Z,96766.16
2022-09-11T08:41:24.181Z,96765.13
2022-09-11T08:43:52.736Z,96764.16
2022-09-11T08:46:22.316Z,96760.00
2022-09-11T08:48:53.861Z,96762.56
2022-09-11T08:51:24.704Z,96761.34
2022-09-11T08:53:52.529Z,96766.78
2022-09-11T08:56:22.414Z,96774.78
2022-09-11T08:58:58.935Z,96770.84
2022-09-11T09:01:30.290Z,96769.97
2022-09-11T09:04:12.563Z,96767.81
2022-09-11T09:06:49.649Z,96782.91
2022-09-11T09:09:19.321Z,96767.56
2022-09-11T09:11:51.485Z,96771.53
2022-09-11T09:14:34.120Z,96775.50
2022-09-11T09:17:04.124Z,96766.78
2022-09-11T09:19:33.435Z,96764.06
2022-09-11T09:22:03.826Z,96774.09
2022-09-11T09:24:32.861Z,96779.59
2022-09-11T09:27:01.004Z,96783.09
2022-09-11T09:29:31.401Z,96772.72
2022-09-11T09:32:00.424Z,96771.97
2022-09-11T09:34:31.192Z,96770.13
2022-09-11T09:37:00.452Z,96799.88
2022-09-11T09:39:28.035Z,96772.19
2022-09-11T09:42:00.336Z,96783.53
2022-09-11T09:44:31.451Z,96774.84
2022-09-11T09:46:59.502Z,96781.31
2022-09-11T09:49:29.217Z,96770.13
2022-09-11T09:52:04.523Z,96768.44
2022-09-11T09:54:33.899Z,96765.19
2022-09-11T09:57:02.401Z,96772.81
2022-09-11T09:59:31.733Z,96767.41
2022-09-11T10:01:59.903Z,96770.53
2022-09-11T10:04:30.160Z,96800.94
2022-09-11T10:07:08.480Z,96777.19
2022-09-11T10:09:36.242Z,96770.06
2022-09-11T10:12:06.443Z,96766.34
2022-09-11T10:14:53.392Z,96764.28
2022-09-11T10:17:21.575Z,96767.31
2022-09-11T10:19:49.219Z,96770.16
2022-09-11T10:22:25.672Z,96592.25
2022-09-11T10:24:53.713Z,96760.63
2022-09-11T10:27:29.036Z,96767.28
2022-09-11T10:29:57.594Z,96766.63
2022-09-11T10:32:25.960Z,96757.28
2022-09-11T10:34:53.704Z,96759.53
2022-09-11T10:37:29.880Z,96752.66
2022-09-11T10:40:02.078Z,96758.69
2022-09-11T10:42:32.105Z,96754.59
2022-09-11T10:45:02.081Z,96757.50
2022-09-11T10:47:32.689Z,96755.44
2022-09-11T10:50:11.941Z,96753.00
2022-09-11T10:52:49.906Z,96764.09
2022-09-11T10:55:20.076Z,96756.06
2022-09-11T10:57:51.134Z,96751.53
2022-09-11T11:00:22.085Z,96754.81
2022-09-11T11:02:52.660Z,96752.78
2022-09-11T11:05:24.608Z,96740.78
2022-09-11T11:08:12.499Z,96744.34
2022-09-11T11:10:43.148Z,96749.41
2022-09-11T11:13:15.763Z,96744.66
2022-09-11T11:15:51.879Z,96748.88
2022-09-11T11:18:21.912Z,96732.38
2022-09-11T11:20:53.274Z,96724.88
2022-09-11T11:23:34.710Z,96743.13
2022-09-11T11:26:06.649Z,96739.34
2022-09-11T11:28:40.129Z,96749.97
2022-09-11T11:31:17.734Z,96761.81
2022-09-11T11:33:53.416Z,96748.09
2022-09-11T11:36:24.202Z,96746.19
2022-09-11T11:39:00.374Z,96742.81
2022-09-11T11:41:28.688Z,96739.16
2022-09-11T11:43:56.714Z,96745.66
2022-09-11T11:46:25.322Z,96743.59
2022-09-11T11:48:56.737Z,96745.19
2022-09-11T11:51:28.345Z,96748.94
2022-09-11T11:54:00.556Z,96748.81
2022-09-11T11:56:30.468Z,96757.88
2022-09-11T11:59:04.109Z,96751.63
2022-09-11T12:01:35.184Z,96758.03
2022-09-11T12:04:03.805Z,96756.22
2022-09-11T12:06:34.032Z,96756.22
2022-09-11T12:09:03.368Z,96761.59
2022-09-11T12:11:35.923Z,96764.28
2022-09-11T12:14:03.802Z,96762.72
2022-09-11T12:16:32.828Z,96762.06
2022-09-11T12:19:06.100Z,96759.72
2022-09-11T12:21:41.236Z,96759.03
2022-09-11T12:24:20.421Z,96753.19
2022-09-11T12:26:48.075Z,96751.00
2022-09-11T12:29:39.629Z,96757.47
2022-09-11T12:32:20.378Z,96752.63
2022-09-11T12:35:07.852Z,96752.84
2022-09-11T12:37:37.786Z,96750.06
2022-09-11T12:40:11.925Z,96749.53
2022-09-11T12:42:58.810Z,96752.41
2022-09-11T12:45:51.918Z,96754.78
2022-09-11T12:48:23.876Z,96756.22
2022-09-11T12:50:53.640Z,96752.09
2022-09-11T12:53:23.651Z,96752.72
2022-09-11T12:56:00.616Z,96750.84
2022-09-11T12:58:34.085Z,96746.63
2022-09-11T13:01:03.262Z,96750.13
2022-09-11T13:03:32.889Z,96753.44
2022-09-11T13:06:06.858Z,96750.03
2022-09-11T13:08:35.664Z,96749.84
2022-09-11T13:11:25.630Z,96744.81
2022-09-11T13:14:00.179Z,96746.38
2022-09-11T13:16:28.699Z,96750.97
2022-09-11T13:18:59.149Z,96744.97
2022-09-11T13:21:36.403Z,96752.56
2022-09-11T13:24:04.234Z,96509.03
2022-09-11T13:26:32.744Z,96738.44
2022-09-11T13:29:05.594Z,96736.63
2022-09-11T13:31:35.731Z,96525.75
2022-09-11T13:34:04.707Z,96723.63
2022-09-11T13:36:33.235Z,96731.13
2022-09-11T13:39:01.739Z,96720.34
2022-09-11T13:41:30.080Z,96720.41
2022-09-11T13:43:58.611Z,96716.59
2022-09-11T13:46:28.135Z,96713.44
2022-09-11T13:48:59.197Z,96734.38
2022-09-11T13:51:30.784Z,96729.22
2022-09-11T13:54:03.201Z,96726.84
2022-09-11T13:56:47.149Z,96730.28
2022-09-11T13:59:34.123Z,96726.19
2022-09-11T14:02:04.817Z,96722.72
2022-09-11T14:04:33.198Z,96721.13
2022-09-11T14:07:00.774Z,96713.84
2022-09-11T14:09:31.012Z,96751.56
2022-09-11T14:12:02.889Z,96709.53
2022-09-11T14:14:30.529Z,96709.91
2022-09-11T14:16:59.141Z,96709.69
2022-09-11T14:19:31.177Z,96699.09
2022-09-11T14:21:58.820Z,96691.97
2022-09-11T14:24:27.034Z,96695.88
2022-09-11T14:26:55.101Z,96696.28
2022-09-11T14:29:23.937Z,96686.59
2022-09-11T14:31:53.056Z,96683.25
2022-09-11T14:34:21.957Z,96681.28
2022-09-11T14:37:07.858Z,96681.44
2022-09-11T14:39:37.885Z,96674.66
2022-09-11T14:42:22.432Z,96671.34
2022-09-11T14:44:53.107Z,96675.69
2022-09-11T14:47:23.537Z,96672.28
2022-09-11T14:49:51.878Z,96669.69
2022-09-11T14:52:26.524Z,96669.44
2022-09-11T14:54:54.197Z,96665.28
2022-09-11T14:57:22.941Z,96660.09
2022-09-11T14:59:50.758Z,96665.94
2022-09-11T15:02:19.841Z,96658.63
2022-09-11T15:04:47.652Z,96658.47
2022-09-11T15:07:18.687Z,96659.75
2022-09-11T15:09:48.155Z,96662.19
2022-09-11T15:12:16.348Z,96454.94
2022-09-11T15:14:56.544Z,96662.94
2022-09-11T15:17:31.543Z,96660.44
2022-09-11T15:20:00.598Z,96657.59
2022-09-11T15:22:28.602Z,96663.84
2022-09-11T15:24:58.086Z,96654.34
2022-09-11T15:27:28.199Z,96649.78
2022-09-11T15:29:58.850Z,96652.09
2022-09-11T15:32:26.786Z,96648.81
2022-09-11T15:34:55.113Z,96655.31
2022-09-11T15:37:23.720Z,96652.09
2022-09-11T15:39:54.378Z,96641.06
2022-09-11T15:42:26.707Z,96644.75
2022-09-11T15:44:56.100Z,96646.09
2022-09-11T15:47:24.157Z,96635.13
2022-09-11T15:49:52.014Z,96639.91
2022-09-11T15:52:21.928Z,96649.53
2022-09-11T15:54:50.250Z,96644.22
2022-09-11T15:57:19.735Z,96640.13
2022-09-11T15:59:50.338Z,96643.91
2022-09-11T16:02:18.502Z,96647.34
2022-09-11T16:04:53.429Z,96643.31
2022-09-11T16:07:21.421Z,96642.53
2022-09-11T16:09:52.630Z,96643.03
2022-09-11T16:12:29.431Z,96638.19
2022-09-11T16:14:58.765Z,96630.66
2022-09-11T16:17:31.197Z,96630.91
2022-09-11T16:19:59.309Z,96639.97
2022-09-11T16:22:30.892Z,96634.06
2022-09-11T16:24:59.100Z,96629.25
2022-09-11T16:27:26.786Z,96632.06
2022-09-11T16:30:32.657Z,96631.66
2022-09-11T16:32:44.792Z,96637.03
2022-09-11T16:35:13.854Z,96643.00
2022-09-11T16:37:41.700Z,96643.56
2022-09-11T16:40:10.777Z,96644.22
2022-09-11T16:42:38.401Z,96639.81
2022-09-11T16:45:06.408Z,96638.47
2022-09-11T16:47:36.996Z,96633.16
2022-09-11T16:50:07.816Z,96629.34
2022-09-11T16:52:37.126Z,96628.78
2022-09-11T16:55:04.849Z,96634.28
2022-09-11T16:57:32.568Z,96629.97
2022-09-11T17:00:03.891Z,96628.03
2022-09-11T17:02:31.632Z,96630.34
2022-09-11T17:05:02.137Z,96628.13
2022-09-11T17:07:31.449Z,96636.34
2022-09-11T17:09:59.040Z,96630.03
2022-09-11T17:12:29.110Z,96632.72
2022-09-11T17:14:56.683Z,96631.72
2022-09-11T17:17:24.614Z,96634.50
2022-09-11T17:19:52.206Z,96449.28
2022-09-11T17:22:24.147Z,96630.31
2022-09-11T17:24:53.767Z,96622.84
2022-09-11T17:27:22.059Z,96632.03
2022-09-11T17:29:52.166Z,96637.75
2022-09-11T17:32:28.267Z,96632.91
2022-09-11T17:34:56.704Z,96634.34
2022-09-11T17:37:26.281Z,96641.19
2022-09-11T17:39:55.601Z,96635.22
2022-09-11T17:42:32.374Z,96634.97
2022-09-11T17:45:00.622Z,96636.31
2022-09-11T17:47:30.997Z,96646.81
2022-09-11T17:49:58.778Z,96645.41
2022-09-11T17:52:26.595Z,96646.00
2022-09-11T17:54:57.048Z,96649.09
2022-09-11T17:57:25.493Z,96655.16
2022-09-11T17:59:53.153Z,96653.28
2022-09-11T18:02:21.639Z,96657.16
2022-09-11T18:04:49.373Z,96652.53
2022-09-11T18:07:22.699Z,96654.13
2022-09-11T18:09:55.582Z,96652.28
2022-09-11T18:12:28.563Z,96658.75
2022-09-11T18:15:02.294Z,96658.78
2022-09-11T18:17:30.667Z,96664.06
2022-09-11T18:19:58.579Z,96667.25
2022-09-11T18:22:26.235Z,96664.56
2022-09-11T18:24:54.063Z,96666.63
2022-09-11T18:27:21.857Z,96671.06
2022-09-11T18:29:53.368Z,96662.22
2022-09-11T18:32:21.113Z,96670.56
2022-09-11T18:34:49.721Z,96662.53
2022-09-11T18:37:17.910Z,96663.47
2022-09-11T18:39:50.161Z,96659.06
2022-09-11T18:42:18.207Z,96662.06
2022-09-11T18:44:46.097Z,96658.13
2022-09-11T18:47:15.471Z,96664.44
2022-09-11T18:49:43.912Z,96663.50
2022-09-11T18:52:17.222Z,96671.88
2022-09-11T18:54:45.010Z,96670.78
2022-09-11T18:57:14.533Z,96666.19
2022-09-11T18:59:43.545Z,96671.72
2022-09-11T19:02:14.369Z,96664.28
2022-09-11T19:04:46.134Z,96674.41
2022-09-11T19:07:14.794Z,96671.72
2022-09-11T19:09:46.129Z,96670.91
2022-09-11T19:12:15.859Z,96666.97
2022-09-11T19:14:46.217Z,96673.44
2022-09-11T19:17:13.897Z,96676.75
2022-09-11T19:19:43.546Z,96672.59
2022-09-11T19:22:11.198Z,96670.84
2022-09-11T19:24:38.878Z,96678.56
2022-09-11T19:27:06.878Z,96683.63
2022-09-11T19:29:34.800Z,96680.09
2022-09-11T19:32:02.810Z,96671.47
2022-09-11T19:34:31.144Z,96674.41
2022-09-11T19:37:00.699Z,96677.13
2022-09-11T19:39:36.738Z,96680.41
2022-09-11T19:42:04.482Z,96669.09
2022-09-11T19:44:34.478Z,96681.56
2022-09-11T19:47:02.468Z,96686.84
2022-09-11T19:49:30.356Z,96683.81
2022-09-11T19:51:58.264Z,96685.91
2022-09-11T19:54:28.044Z,96692.34
2022-09-11T19:56:55.782Z,96695.41
2022-09-11T19:59:23.376Z,96693.41
2022-09-11T20:01:51.709Z,96688.09
2022-09-11T20:04:20.306Z,96689.69
2022-09-11T20:09:32.394Z,96689.81
2022-09-11T20:12:02.499Z,96688.94
2022-09-11T20:14:32.268Z,96683.13
2022-09-11T20:17:04.708Z,96685.88
2022-09-11T20:19:34.582Z,96684.50
2022-09-11T20:22:02.237Z,96682.31
2022-09-11T20:24:34.373Z,96677.28
2022-09-11T20:27:04.256Z,96684.28
2022-09-11T20:29:34.741Z,96673.88
2022-09-11T20:32:02.911Z,96688.03
2022-09-11T20:34:31.481Z,96679.41
2022-09-11T20:37:01.930Z,96683.09
2022-09-11T20:39:29.528Z,96678.44
2022-09-11T20:41:57.583Z,96686.16
2022-09-11T20:44:28.239Z,96679.06
2022-09-11T20:46:56.177Z,96685.88
2022-09-11T20:49:25.344Z,96676.19
2022-09-11T20:51:52.916Z,96677.66
2022-09-11T20:54:21.069Z,96676.53
2022-09-11T20:56:49.542Z,96674.50
2022-09-11T20:59:17.656Z,96676.66
2022-09-11T21:01:46.667Z,96663.88
2022-09-11T21:04:14.263Z,96669.56
2022-09-11T21:06:42.095Z,96662.25
2022-09-11T21:09:11.268Z,96662.47
2022-09-11T21:11:39.176Z,96657.53
2022-09-11T21:14:07.427Z,96665.16
2022-09-11T21:16:35.491Z,96665.41
2022-09-11T21:19:10.486Z,96667.44
2022-09-11T21:21:42.746Z,96665.41
2022-09-11T21:24:14.090Z,96668.84
2022-09-11T21:26:44.810Z,96669.88
2022-09-11T21:29:13.327Z,96667.00
2022-09-11T21:31:40.985Z,96664.84
2022-09-11T21:34:10.704Z,96672.94
2022-09-11T21:36:38.335Z,96668.09
2022-09-11T21:39:06.243Z,96667.78
2022-09-11T21:41:40.394Z,96666.31
2022-09-11T21:44:08.109Z,96656.38
2022-09-11T21:46:36.840Z,96655.34
2022-09-11T21:49:04.382Z,96691.31
2022-09-11T21:51:33.826Z,96655.75
2022-09-11T21:54:01.997Z,96659.56
2022-09-11T21:56:31.061Z,96653.63
2022-09-11T21:58:58.677Z,96660.56
2022-09-11T22:01:26.729Z,96664.13
2022-09-11T22:03:54.454Z,96664.00
2022-09-11T22:06:23.740Z,96662.31
2022-09-11T22:08:53.453Z,96659.13
2022-09-11T22:11:21.899Z,96659.84
2022-09-11T22:13:49.593Z,96668.72
2022-09-11T22:16:17.934Z,96662.28
2022-09-11T22:18:47.910Z,96668.63
2022-09-11T22:21:18.866Z,96669.25
2022-09-11T22:23:47.587Z,96666.84
2022-09-11T22:26:17.729Z,96664.06
2022-09-11T22:28:45.377Z,96659.84
2022-09-11T22:31:16.097Z,96662.34
2022-09-11T22:33:44.259Z,96656.00
2022-09-11T22:36:12.937Z,96652.19
2022-09-11T22:38:40.507Z,96647.19
2022-09-11T22:41:10.207Z,96682.63
2022-09-11T22:43:39.679Z,96655.28
2022-09-11T22:46:07.253Z,96661.59
2022-09-11T22:48:34.868Z,96654.13
2022-09-11T22:51:02.815Z,96646.97
2022-09-11T22:53:31.045Z,96645.97
2022-09-11T22:55:59.016Z,96645.22
2022-09-11T22:58:31.190Z,96643.66
2022-09-11T23:01:01.050Z,96652.75
2022-09-11T23:03:31.169Z,96647.50
2022-09-11T23:06:22.569Z,96644.38
2022-09-11T23:08:51.228Z,96645.25
2022-09-11T23:11:20.277Z,96648.44
2022-09-11T23:13:49.708Z,96648.69
2022-09-11T23:16:20.251Z,96652.13
2022-09-11T23:18:50.713Z,96666.25
2022-09-11T23:21:18.644Z,96641.34
2022-09-11T23:23:53.822Z,96641.69
2022-09-11T23:26:25.322Z,96639.03
2022-09-11T23:28:52.989Z,96640.97
2022-09-11T23:31:24.812Z,96628.41
2022-09-11T23:33:55.806Z,96629.25
2022-09-11T23:36:24.162Z,96624.81
2022-09-11T23:38:52.248Z,96625.91
2022-09-11T23:41:22.504Z,96626.16
2022-09-11T23:43:50.473Z,96628.25
2022-09-11T23:46:18.213Z,96626.94
2022-09-11T23:48:47.684Z,96626.66
2022-09-11T23:51:17.308Z,96622.22
2022-09-11T23:53:49.166Z,96630.28
2022-09-11T23:56:16.868Z,96615.03
2022-09-11T23:58:46.933Z,96620.19
